Time;durP1;ratioP1;P1;durP2;ratioP2;P2;SDS_P1;SDS_P2;PMS_P1;PMS_P2;Temp;Humidity;BMP_temperature;BMP_pressure;BME280_temperature;BME280_humidity;BME280_pressure;Samples;Min_cycle;Max_cycle;Signal;HPM_P1;HPM_P2
2023/03/18 00:00:14;;;;;;;2.13;1.37;;;10.40;99.90;;;;;;4992398;28;20447;-68
2023/03/18 00:02:42;;;;;;;1.83;1.43;;;10.40;99.90;;;;;;4985850;28;21008;-68
2023/03/18 00:05:13;;;;;;;1.60;1.37;;;10.40;99.90;;;;;;4996378;28;20807;-68
2023/03/18 00:07:41;;;;;;;3.53;1.40;;;10.40;99.90;;;;;;4995445;28;20474;-68
2023/03/18 00:10:11;;;;;;;3.10;1.67;;;10.40;99.90;;;;;;4978529;28;20576;-68
2023/03/18 00:12:40;;;;;;;1.40;1.10;;;10.40;99.90;;;;;;5001163;28;20459;-68
2023/03/18 00:15:13;;;;;;;1.80;1.70;;;10.40;99.90;;;;;;4997375;28;20449;-69
2023/03/18 00:17:42;;;;;;;2.23;1.37;;;10.40;99.90;;;;;;4982299;28;20495;-67
2023/03/18 00:20:12;;;;;;;1.77;1.30;;;10.40;99.90;;;;;;4977530;28;20988;-68
2023/03/18 00:22:42;;;;;;;1.40;1.30;;;10.40;99.90;;;;;;5000517;28;20452;-69
2023/03/18 00:25:13;;;;;;;2.67;1.57;;;10.40;99.90;;;;;;5002188;28;20469;-69
2023/03/18 00:27:41;;;;;;;2.23;1.30;;;10.40;99.90;;;;;;4983231;28;20563;-68
2023/03/18 00:30:12;;;;;;;1.60;1.50;;;10.40;99.90;;;;;;4994089;28;20482;-67
2023/03/18 00:32:41;;;;;;;2.20;1.70;;;10.40;99.90;;;;;;4981839;28;20450;-68
2023/03/18 00:35:11;;;;;;;3.50;1.27;;;10.40;99.90;;;;;;4990443;28;20439;-68
2023/03/18 00:37:39;;;;;;;7.23;1.60;;;10.40;99.90;;;;;;4998309;28;20530;-68
2023/03/18 00:40:16;;;;;;;3.70;1.80;;;10.40;99.90;;;;;;4980818;28;20561;-69
2023/03/18 00:42:49;;;;;;;2.50;1.33;;;10.40;99.90;;;;;;5001326;28;20534;-69
2023/03/18 00:45:19;;;;;;;1.83;1.20;;;10.50;99.90;;;;;;4976777;28;20550;-69
2023/03/18 00:47:49;;;;;;;2.17;1.33;;;10.40;99.90;;;;;;4997227;28;20523;-66
2023/03/18 00:50:17;;;;;;;2.20;1.27;;;10.50;99.90;;;;;;4999264;28;21139;-67
2023/03/18 00:52:45;;;;;;;1.80;1.47;;;10.40;99.90;;;;;;4987652;28;20450;-68
2023/03/18 00:55:14;;;;;;;3.00;1.50;;;10.50;99.90;;;;;;4994745;28;20975;-69
2023/03/18 00:57:42;;;;;;;1.63;1.50;;;10.50;99.90;;;;;;5004192;28;20457;-68
2023/03/18 01:00:15;;;;;;;2.77;1.60;;;10.50;99.90;;;;;;4987190;28;20484;-69
2023/03/18 01:02:48;;;;;;;1.53;1.40;;;10.50;99.90;;;;;;4999864;28;20445;-68
2023/03/18 01:05:17;;;;;;;2.10;1.47;;;10.50;99.90;;;;;;4988801;28;20807;-68
2023/03/18 01:07:47;;;;;;;1.50;1.33;;;10.50;99.90;;;;;;4992446;28;20868;-68
2023/03/18 01:10:15;;;;;;;1.43;1.20;;;10.50;99.90;;;;;;4997277;28;21202;-67
2023/03/18 01:12:45;;;;;;;1.53;1.17;;;10.50;99.90;;;;;;5004118;28;20500;-69
2023/03/18 01:15:16;;;;;;;2.33;1.87;;;10.50;99.90;;;;;;5003227;28;20511;-69
2023/03/18 01:17:48;;;;;;;1.23;1.00;;;10.50;99.90;;;;;;4994251;28;20671;-67
2023/03/18 01:20:18;;;;;;;1.43;1.33;;;10.50;99.90;;;;;;5002231;28;20477;-68
2023/03/18 01:22:51;;;;;;;2.33;1.23;;;10.50;99.90;;;;;;4995797;28;20452;-68
2023/03/18 01:25:20;;;;;;;1.77;1.30;;;10.50;99.90;;;;;;4985775;28;20440;-68
2023/03/18 01:27:52;;;;;;;1.60;1.20;;;10.50;99.90;;;;;;5002205;28;20459;-67
2023/03/18 01:30:22;;;;;;;2.07;1.50;;;10.50;99.90;;;;;;4980374;28;20473;-67
2023/03/18 01:32:54;;;;;;;2.80;1.70;;;10.50;99.90;;;;;;4986619;28;20491;-68
2023/03/18 01:35:24;;;;;;;3.07;1.50;;;10.50;99.90;;;;;;4986122;28;20973;-67
2023/03/18 01:37:53;;;;;;;1.50;1.40;;;10.50;99.90;;;;;;4998127;28;20466;-69
2023/03/18 01:40:22;;;;;;;1.20;1.10;;;10.50;99.90;;;;;;4997415;28;20505;-68
2023/03/18 01:42:56;;;;;;;1.87;1.40;;;10.50;99.90;;;;;;5001596;28;20457;-69
2023/03/18 01:45:30;;;;;;;1.30;1.20;;;10.50;99.90;;;;;;5001980;28;20538;-67
2023/03/18 01:48:02;;;;;;;1.80;1.10;;;10.50;99.90;;;;;;4979953;28;20496;-67
2023/03/18 01:50:33;;;;;;;1.90;1.40;;;10.50;99.90;;;;;;4977220;28;20469;-69
2023/03/18 01:53:08;;;;;;;2.37;1.73;;;10.50;99.90;;;;;;4992420;28;20430;-68
2023/03/18 01:55:38;;;;;;;1.50;1.40;;;10.50;99.90;;;;;;4995999;28;20461;-68
2023/03/18 01:58:13;;;;;;;1.87;1.73;;;10.50;99.90;;;;;;4992031;28;20488;-68
2023/03/18 02:00:44;;;;;;;2.00;1.37;;;10.50;99.90;;;;;;4999179;28;20528;-68
2023/03/18 02:03:15;;;;;;;1.50;1.23;;;10.50;99.90;;;;;;4992098;28;20493;-67
2023/03/18 02:05:44;;;;;;;1.70;1.57;;;10.50;99.90;;;;;;4982780;28;20990;-69
2023/03/18 02:08:12;;;;;;;2.30;1.23;;;10.50;99.90;;;;;;4994733;28;21015;-68
2023/03/18 02:10:41;;;;;;;1.63;1.40;;;10.50;99.90;;;;;;4984333;28;21067;-68
2023/03/18 02:13:14;;;;;;;1.90;1.50;;;10.50;99.90;;;;;;4984766;28;20533;-69
2023/03/18 02:15:49;;;;;;;2.20;1.33;;;10.50;99.90;;;;;;4959864;28;1133582;-69
2023/03/18 02:18:22;;;;;;;1.50;1.40;;;10.50;99.90;;;;;;4994814;28;20568;-70
2023/03/18 02:21:08;;;;;;;3.30;1.77;;;10.50;99.90;;;;;;5003047;28;20495;-67
2023/03/18 02:23:46;;;;;;;3.73;1.30;;;10.50;99.90;;;;;;4978973;28;20988;-68
2023/03/18 02:26:22;;;;;;;1.57;1.00;;;10.50;99.90;;;;;;4980726;28;20531;-68
2023/03/18 02:28:56;;;;;;;2.30;1.67;;;10.50;99.90;;;;;;4995508;28;20891;-68
2023/03/18 02:31:26;;;;;;;1.30;1.13;;;10.50;99.90;;;;;;4992988;28;20476;-70
2023/03/18 02:33:56;;;;;;;2.20;1.47;;;10.50;99.90;;;;;;4985648;28;20541;-69
2023/03/18 02:36:27;;;;;;;2.83;1.67;;;10.50;99.90;;;;;;4972007;28;20800;-67
2023/03/18 02:38:59;;;;;;;3.07;2.20;;;10.50;99.90;;;;;;4989990;28;20857;-67
2023/03/18 02:41:32;;;;;;;2.30;1.70;;;10.50;99.90;;;;;;5000838;28;20484;-70
2023/03/18 02:44:02;;;;;;;2.07;1.70;;;10.50;99.90;;;;;;4978181;28;20453;-68
2023/03/18 02:46:48;;;;;;;2.73;1.80;;;10.50;99.90;;;;;;4995458;28;20480;-69
2023/03/18 02:49:18;;;;;;;2.30;1.47;;;10.50;99.90;;;;;;4990044;28;20497;-68
2023/03/18 02:51:48;;;;;;;1.30;1.20;;;10.50;99.90;;;;;;4995143;28;20496;-69
2023/03/18 02:54:19;;;;;;;1.63;1.30;;;10.50;99.90;;;;;;4986617;28;20806;-69
2023/03/18 02:56:48;;;;;;;1.83;1.10;;;10.50;99.90;;;;;;5002503;28;20500;-68
2023/03/18 02:59:20;;;;;;;1.90;1.40;;;10.50;99.90;;;;;;4980328;28;20525;-69
2023/03/18 03:01:51;;;;;;;1.63;1.20;;;10.50;99.90;;;;;;4983590;28;20511;-69
2023/03/18 03:04:23;;;;;;;1.77;1.23;;;10.50;99.90;;;;;;4995244;28;20449;-68
2023/03/18 03:06:53;;;;;;;2.47;1.40;;;10.50;99.90;;;;;;5003479;28;20495;-68
2023/03/18 03:09:34;;;;;;;1.63;1.20;;;10.50;99.90;;;;;;4990316;28;20462;-69
2023/03/18 03:12:02;;;;;;;3.00;1.57;;;10.50;99.90;;;;;;4988786;28;20563;-69
2023/03/18 03:14:32;;;;;;;1.63;1.53;;;10.50;99.90;;;;;;5005942;28;20467;-68
2023/03/18 03:17:03;;;;;;;1.40;1.30;;;10.50;99.90;;;;;;4978859;28;20566;-68
2023/03/18 03:19:32;;;;;;;1.80;1.27;;;10.50;99.90;;;;;;4996801;28;20484;-69
2023/03/18 03:22:02;;;;;;;1.63;1.50;;;10.50;99.90;;;;;;4987618;28;20909;-69
2023/03/18 03:24:31;;;;;;;1.93;1.40;;;10.50;99.90;;;;;;4985878;28;20851;-69
2023/03/18 03:26:59;;;;;;;1.50;1.40;;;10.50;99.90;;;;;;5001722;28;21059;-69
2023/03/18 03:29:28;;;;;;;1.27;0.90;;;10.50;99.90;;;;;;5000928;28;20491;-68
2023/03/18 03:31:57;;;;;;;1.97;1.50;;;10.50;99.90;;;;;;4980274;28;20525;-69
2023/03/18 03:34:26;;;;;;;1.87;1.07;;;10.40;99.90;;;;;;4998796;28;20882;-69
2023/03/18 03:36:55;;;;;;;1.53;1.10;;;10.50;99.90;;;;;;4991678;28;21064;-68
2023/03/18 03:39:26;;;;;;;1.50;1.33;;;10.50;99.90;;;;;;4999649;28;20715;-68
2023/03/18 03:41:54;;;;;;;1.27;1.17;;;10.50;99.90;;;;;;4983667;28;20547;-69
2023/03/18 03:44:23;;;;;;;1.87;1.50;;;10.50;99.90;;;;;;4985668;28;20812;-69
2023/03/18 03:46:51;;;;;;;1.60;1.30;;;10.50;99.90;;;;;;4980738;28;21001;-69
2023/03/18 03:49:24;;;;;;;1.63;1.40;;;10.40;99.90;;;;;;5000926;28;20549;-70
2023/03/18 03:51:52;;;;;;;1.77;1.33;;;10.40;99.90;;;;;;4995603;28;20481;-68
2023/03/18 03:54:24;;;;;;;1.60;1.30;;;10.40;99.90;;;;;;5002632;28;20477;-68
2023/03/18 03:56:53;;;;;;;1.73;1.43;;;10.40;99.90;;;;;;5001678;28;20466;-68
2023/03/18 03:59:21;;;;;;;1.47;1.20;;;10.40;99.90;;;;;;4995341;28;20459;-68
2023/03/18 04:02:08;;;;;;;1.20;1.10;;;10.40;99.90;;;;;;4975836;28;20467;-68
2023/03/18 04:04:39;;;;;;;1.77;1.50;;;10.40;99.90;;;;;;4987113;28;20846;-68
2023/03/18 04:07:13;;;;;;;1.53;1.43;;;10.40;99.90;;;;;;4993011;28;20490;-69
2023/03/18 04:09:41;;;;;;;2.17;1.37;;;10.40;99.90;;;;;;4997089;28;20449;-69
2023/03/18 04:12:10;;;;;;;1.70;1.00;;;10.40;99.90;;;;;;4990507;28;20459;-68
2023/03/18 04:14:39;;;;;;;1.77;1.10;;;10.40;99.90;;;;;;4977300;28;20527;-68
2023/03/18 04:17:08;;;;;;;2.10;1.53;;;10.40;99.90;;;;;;4997128;28;20480;-68
2023/03/18 04:19:38;;;;;;;5.10;1.50;;;10.40;99.90;;;;;;5000857;28;20503;-68
2023/03/18 04:22:08;;;;;;;2.13;1.27;;;10.40;99.90;;;;;;4995712;28;20496;-68
2023/03/18 04:24:38;;;;;;;1.33;1.23;;;10.40;99.90;;;;;;4998590;28;20472;-69
2023/03/18 04:27:07;;;;;;;3.93;1.50;;;10.40;99.90;;;;;;4993721;28;20482;-69
2023/03/18 04:29:35;;;;;;;1.27;1.17;;;10.40;99.90;;;;;;4990916;28;20577;-68
2023/03/18 04:32:04;;;;;;;1.47;1.27;;;10.40;99.90;;;;;;4999540;28;20543;-68
2023/03/18 04:34:35;;;;;;;3.00;2.37;;;10.40;99.90;;;;;;5002316;28;20953;-69
2023/03/18 04:37:04;;;;;;;1.53;1.30;;;10.40;99.90;;;;;;4982543;28;20900;-68
2023/03/18 04:39:36;;;;;;;1.63;1.50;;;10.40;99.90;;;;;;4991738;28;20461;-69
2023/03/18 04:42:05;;;;;;;1.43;1.07;;;10.40;99.90;;;;;;4998023;28;20503;-69
2023/03/18 04:44:34;;;;;;;2.17;1.40;;;10.40;99.90;;;;;;4984779;28;20453;-68
2023/03/18 04:47:03;;;;;;;2.13;1.50;;;10.40;99.90;;;;;;4987024;28;20492;-69
2023/03/18 04:49:31;;;;;;;1.30;1.20;;;10.40;99.90;;;;;;5001208;28;21255;-67
2023/03/18 04:52:04;;;;;;;1.77;1.40;;;10.40;99.90;;;;;;4985703;28;20624;-68
2023/03/18 04:54:33;;;;;;;1.70;1.20;;;10.40;99.90;;;;;;4983401;28;20460;-67
2023/03/18 04:57:07;;;;;;;1.20;1.10;;;10.40;99.90;;;;;;4985914;28;20473;-68
2023/03/18 04:59:42;;;;;;;0.90;0.87;;;10.40;99.90;;;;;;4983210;28;20497;-68
2023/03/18 05:02:11;;;;;;;2.20;1.30;;;10.40;99.90;;;;;;4984189;28;20490;-67
2023/03/18 05:04:39;;;;;;;1.30;0.90;;;10.40;99.90;;;;;;4999777;28;20544;-69
2023/03/18 05:07:14;;;;;;;1.47;1.30;;;10.40;99.90;;;;;;4993763;28;20472;-68
2023/03/18 05:09:48;;;;;;;1.30;1.20;;;10.40;99.90;;;;;;5000984;28;20488;-68
2023/03/18 05:12:19;;;;;;;1.33;1.10;;;10.40;99.90;;;;;;4971891;28;20871;-68
2023/03/18 05:14:47;;;;;;;1.30;0.93;;;10.40;99.90;;;;;;4999577;28;20442;-67
2023/03/18 05:17:17;;;;;;;2.37;1.30;;;10.40;99.90;;;;;;4981427;28;20467;-69
2023/03/18 05:19:54;;;;;;;1.10;1.00;;;10.40;99.90;;;;;;5000288;28;20447;-69
2023/03/18 05:22:23;;;;;;;1.20;1.10;;;10.40;99.90;;;;;;4977151;28;20476;-67
2023/03/18 05:24:59;;;;;;;1.90;1.30;;;10.40;99.90;;;;;;5004093;28;21028;-68
2023/03/18 05:27:30;;;;;;;1.00;0.90;;;10.40;99.90;;;;;;4999700;28;20465;-68
2023/03/18 05:30:04;;;;;;;1.87;1.07;;;10.40;99.90;;;;;;5001054;28;20835;-69
2023/03/18 05:32:40;;;;;;;2.77;1.23;;;10.40;99.90;;;;;;4975248;28;20562;-69
2023/03/18 05:35:10;;;;;;;2.07;1.80;;;10.40;99.90;;;;;;4997856;28;20471;-67
2023/03/18 05:37:48;;;;;;;1.20;1.10;;;10.40;99.90;;;;;;4984923;28;21004;-69
2023/03/18 05:40:18;;;;;;;2.13;1.67;;;10.40;99.90;;;;;;4990065;28;21038;-68
2023/03/18 05:43:15;;;;;;;1.00;0.90;;;10.40;99.90;;;;;;4988948;28;20597;-69
2023/03/18 05:45:54;;;;;;;1.17;0.97;;;10.40;99.90;;;;;;4965792;28;20492;-69
2023/03/18 05:48:34;;;;;;;1.27;0.93;;;10.40;99.90;;;;;;4999246;28;21016;-69
2023/03/18 05:51:06;;;;;;;1.47;0.97;;;10.40;99.90;;;;;;4991957;28;20485;-67
2023/03/18 05:53:37;;;;;;;1.60;1.50;;;10.40;99.90;;;;;;5000331;28;20986;-69
2023/03/18 05:56:30;;;;;;;1.20;1.10;;;10.40;99.90;;;;;;4998166;28;20584;-69
2023/03/18 05:59:02;;;;;;;1.50;1.40;;;10.40;99.90;;;;;;5000794;28;20993;-68
2023/03/18 06:01:44;;;;;;;1.10;0.97;;;10.40;99.90;;;;;;5000513;28;20474;-67
2023/03/18 06:04:13;;;;;;;1.80;1.70;;;10.40;99.90;;;;;;4990837;28;20440;-68
2023/03/18 06:06:42;;;;;;;1.80;1.10;;;10.40;99.90;;;;;;4996864;28;20516;-68
2023/03/18 06:09:12;;;;;;;1.63;1.53;;;10.40;99.90;;;;;;4995010;28;20475;-68
2023/03/18 06:11:44;;;;;;;1.43;1.30;;;10.40;99.90;;;;;;4981780;28;20491;-69
2023/03/18 06:14:14;;;;;;;1.30;1.10;;;10.40;99.90;;;;;;4996714;28;20548;-69
2023/03/18 06:16:44;;;;;;;1.33;1.23;;;10.40;99.90;;;;;;5000364;28;20575;-68
2023/03/18 06:19:13;;;;;;;3.00;1.40;;;10.40;99.90;;;;;;4999537;28;20462;-67
2023/03/18 06:21:42;;;;;;;1.43;1.30;;;10.40;99.90;;;;;;5000985;28;20477;-68
2023/03/18 06:24:12;;;;;;;1.40;1.30;;;10.40;99.90;;;;;;4983404;28;20855;-69
2023/03/18 06:26:40;;;;;;;1.63;1.40;;;10.40;99.90;;;;;;5001249;28;20525;-68
2023/03/18 06:29:09;;;;;;;1.10;1.00;;;10.40;99.90;;;;;;5003343;28;20476;-68
2023/03/18 06:31:40;;;;;;;1.10;1.00;;;10.40;99.90;;;;;;4979027;28;20506;-70
2023/03/18 06:34:11;;;;;;;1.20;1.10;;;10.40;99.90;;;;;;4998966;28;20456;-68
2023/03/18 06:36:40;;;;;;;1.70;1.10;;;10.40;99.90;;;;;;4989262;28;20985;-67
2023/03/18 06:39:15;;;;;;;1.40;1.30;;;10.40;99.90;;;;;;5003990;28;20500;-68
2023/03/18 06:41:44;;;;;;;1.30;1.10;;;10.40;99.90;;;;;;4983679;28;20509;-69
2023/03/18 06:44:35;;;;;;;1.10;1.00;;;10.40;99.90;;;;;;4991639;28;20460;-68
2023/03/18 06:47:15;;;;;;;1.33;1.23;;;10.40;99.90;;;;;;4990706;28;20473;-68
2023/03/18 06:49:51;;;;;;;1.47;1.33;;;10.40;99.90;;;;;;4986979;28;20974;-68
2023/03/18 06:52:27;;;;;;;1.50;1.27;;;10.40;99.90;;;;;;4986491;28;20807;-68
2023/03/18 06:55:01;;;;;;;1.07;0.77;;;10.40;99.90;;;;;;4996283;28;20980;-68
2023/03/18 06:57:30;;;;;;;1.40;1.27;;;10.40;99.90;;;;;;5003453;28;20808;-68
2023/03/18 06:59:58;;;;;;;1.10;1.00;;;10.40;99.90;;;;;;4989360;28;20801;-66
2023/03/18 07:02:28;;;;;;;2.10;1.63;;;10.40;99.90;;;;;;4986582;28;20818;-68
2023/03/18 07:05:00;;;;;;;1.20;1.10;;;10.40;99.90;;;;;;4975942;28;20462;-67
2023/03/18 07:07:33;;;;;;;1.30;1.20;;;10.40;99.90;;;;;;4993705;28;20901;-67
2023/03/18 07:10:02;;;;;;;1.30;1.20;;;10.40;99.90;;;;;;4994648;28;20467;-68
2023/03/18 07:12:30;;;;;;;1.20;1.10;;;10.40;99.90;;;;;;4971595;28;20446;-69
2023/03/18 07:14:59;;;;;;;1.17;1.00;;;10.40;99.90;;;;;;4991648;28;20437;-66
2023/03/18 07:17:29;;;;;;;1.53;1.30;;;10.40;99.90;;;;;;4983981;28;20472;-67
2023/03/18 07:19:58;;;;;;;2.13;1.20;;;10.40;99.90;;;;;;4999492;28;20504;-68
2023/03/18 07:22:26;;;;;;;1.40;1.10;;;10.40;99.90;;;;;;5002067;28;21059;-68
2023/03/18 07:24:55;;;;;;;2.50;1.10;;;10.40;99.90;;;;;;4981497;28;21032;-68
2023/03/18 07:27:23;;;;;;;1.13;1.03;;;10.50;99.90;;;;;;4993036;28;20850;-68
2023/03/18 07:29:52;;;;;;;1.50;1.20;;;10.50;99.90;;;;;;5000808;28;20462;-67
2023/03/18 07:32:20;;;;;;;1.77;1.20;;;10.50;99.90;;;;;;4978461;28;20456;-67
2023/03/18 07:34:51;;;;;;;1.10;1.00;;;10.50;99.90;;;;;;4991562;28;20529;-69
2023/03/18 07:37:19;;;;;;;1.40;1.20;;;10.50;99.90;;;;;;4991901;28;20488;-68
2023/03/18 07:39:48;;;;;;;1.80;1.50;;;10.50;99.90;;;;;;4997214;28;20441;-68
2023/03/18 07:42:16;;;;;;;1.67;1.37;;;10.50;99.90;;;;;;4981835;28;20536;-67
2023/03/18 07:44:46;;;;;;;1.47;1.33;;;10.50;99.90;;;;;;4997781;28;20496;-67
2023/03/18 07:47:14;;;;;;;1.90;1.47;;;10.50;99.90;;;;;;4984536;28;20464;-67
2023/03/18 07:49:43;;;;;;;1.37;1.10;;;10.60;99.90;;;;;;5002600;28;20527;-69
2023/03/18 07:52:13;;;;;;;1.20;1.00;;;10.60;99.90;;;;;;4979404;28;20569;-69
2023/03/18 07:54:42;;;;;;;2.00;1.23;;;10.60;99.90;;;;;;4996854;28;20538;-68
2023/03/18 07:57:10;;;;;;;1.40;1.10;;;10.60;99.90;;;;;;5000452;28;20512;-67
2023/03/18 07:59:39;;;;;;;1.27;1.17;;;10.60;99.90;;;;;;4994018;28;20441;-68
2023/03/18 08:02:11;;;;;;;1.30;1.20;;;10.60;99.90;;;;;;4995793;28;20525;-69
2023/03/18 08:04:39;;;;;;;1.10;1.00;;;10.60;99.90;;;;;;4999878;28;20467;-67
2023/03/18 08:07:08;;;;;;;1.53;1.10;;;10.60;99.90;;;;;;4990728;28;20483;-68
2023/03/18 08:09:39;;;;;;;1.30;1.10;;;10.70;99.90;;;;;;4998411;28;20525;-67
2023/03/18 08:12:08;;;;;;;1.10;1.00;;;10.70;99.90;;;;;;4978710;28;20545;-66
2023/03/18 08:14:37;;;;;;;1.20;1.10;;;10.70;99.90;;;;;;4994178;28;21013;-69
2023/03/18 08:17:05;;;;;;;1.47;1.33;;;10.70;99.90;;;;;;4973489;28;20577;-67
2023/03/18 08:19:34;;;;;;;0.80;0.77;;;10.70;99.90;;;;;;4988155;28;20455;-68
2023/03/18 08:22:03;;;;;;;1.40;1.10;;;10.70;99.90;;;;;;4990535;28;20500;-67
2023/03/18 08:24:31;;;;;;;1.60;1.50;;;10.70;99.90;;;;;;4996620;28;20449;-68
2023/03/18 08:27:01;;;;;;;1.70;1.47;;;10.70;99.90;;;;;;4998192;28;20578;-69
2023/03/18 08:29:30;;;;;;;1.80;1.70;;;10.70;99.90;;;;;;4978716;28;20474;-67
2023/03/18 08:31:58;;;;;;;2.30;2.00;;;10.80;99.90;;;;;;4977400;28;20525;-67
2023/03/18 08:34:28;;;;;;;1.67;1.57;;;10.80;99.90;;;;;;4978659;28;20441;-67
2023/03/18 08:36:56;;;;;;;1.63;1.50;;;10.80;99.90;;;;;;4984298;28;20479;-68
2023/03/18 08:39:25;;;;;;;2.47;2.23;;;10.80;99.90;;;;;;4998166;28;20484;-67
2023/03/18 08:41:54;;;;;;;2.77;1.80;;;10.90;99.90;;;;;;4983853;28;20483;-68
2023/03/18 08:44:24;;;;;;;2.27;2.00;;;10.90;99.90;;;;;;5001876;28;20434;-67
2023/03/18 08:46:52;;;;;;;2.10;1.90;;;10.90;99.90;;;;;;4992692;28;20514;-67
2023/03/18 08:49:21;;;;;;;1.90;1.70;;;10.80;99.90;;;;;;5000624;28;20510;-67
2023/03/18 08:51:50;;;;;;;2.43;1.70;;;10.90;99.90;;;;;;4983369;28;20918;-67
2023/03/18 08:54:20;;;;;;;2.30;1.63;;;10.80;99.90;;;;;;5001359;28;21072;-68
2023/03/18 08:56:48;;;;;;;2.70;2.00;;;10.80;99.90;;;;;;4982711;28;20469;-67
2023/03/18 08:59:17;;;;;;;1.97;1.77;;;10.80;99.90;;;;;;4998134;28;20476;-68
2023/03/18 09:01:47;;;;;;;3.20;1.70;;;10.80;99.90;;;;;;4985954;28;20480;-67
2023/03/18 09:04:16;;;;;;;2.10;1.73;;;10.80;99.90;;;;;;5000513;28;20887;-68
2023/03/18 09:06:45;;;;;;;1.60;1.50;;;10.80;99.90;;;;;;5001283;28;20999;-68
2023/03/18 09:09:13;;;;;;;1.60;1.50;;;10.80;99.90;;;;;;5003409;28;21012;-67
2023/03/18 09:11:42;;;;;;;1.80;1.60;;;10.80;99.90;;;;;;5000675;28;20480;-68
2023/03/18 09:14:10;;;;;;;1.47;1.37;;;10.80;99.90;;;;;;4993406;28;20956;-68
2023/03/18 09:16:39;;;;;;;1.50;1.33;;;10.80;99.90;;;;;;4994758;28;20477;-68
2023/03/18 09:19:09;;;;;;;1.97;1.30;;;10.80;99.90;;;;;;4981993;28;20812;-68
2023/03/18 09:21:38;;;;;;;1.63;1.53;;;10.80;99.90;;;;;;4984365;28;20466;-67
2023/03/18 09:24:07;;;;;;;1.33;1.23;;;10.80;99.90;;;;;;5001023;28;20967;-67
2023/03/18 09:26:35;;;;;;;2.00;1.70;;;10.80;99.90;;;;;;4980514;28;20522;-67
2023/03/18 09:29:04;;;;;;;1.83;1.40;;;10.80;99.90;;;;;;4977926;28;20905;-67
2023/03/18 09:31:32;;;;;;;1.90;1.23;;;10.90;99.90;;;;;;4971635;28;20475;-69
2023/03/18 09:34:01;;;;;;;2.57;1.67;;;10.90;99.90;;;;;;5003618;28;20551;-66
2023/03/18 09:36:31;;;;;;;1.17;1.07;;;11.00;99.90;;;;;;4994852;28;20473;-68
2023/03/18 09:39:00;;;;;;;2.27;1.63;;;11.00;99.90;;;;;;5005078;28;20557;-68
2023/03/18 09:41:43;;;;;;;3.30;1.60;;;11.00;99.90;;;;;;4986541;28;20492;-67
2023/03/18 09:44:21;;;;;;;1.80;1.60;;;11.00;99.90;;;;;;4995622;28;20609;-68
2023/03/18 09:47:04;;;;;;;1.60;1.50;;;11.00;99.90;;;;;;4987324;28;20469;-69
2023/03/18 09:49:42;;;;;;;1.80;1.47;;;11.00;99.90;;;;;;5001222;28;20431;-69
2023/03/18 09:52:22;;;;;;;3.20;1.43;;;11.00;99.90;;;;;;4996844;28;20571;-69
2023/03/18 09:54:57;;;;;;;2.00;1.80;;;11.00;99.90;;;;;;4983191;28;20947;-67
2023/03/18 09:57:28;;;;;;;1.30;1.20;;;11.00;99.90;;;;;;4983900;28;20491;-67
2023/03/18 10:00:05;;;;;;;1.73;1.53;;;10.90;99.90;;;;;;5003483;28;20424;-69
2023/03/18 10:02:41;;;;;;;2.30;1.47;;;10.90;99.90;;;;;;4986725;28;21140;-68
2023/03/18 10:05:16;;;;;;;1.80;1.00;;;10.90;99.90;;;;;;4980772;28;20456;-67
2023/03/18 10:07:50;;;;;;;2.30;1.83;;;10.90;99.90;;;;;;5000365;28;20936;-66
2023/03/18 10:10:25;;;;;;;2.10;1.43;;;10.90;99.90;;;;;;4977583;28;20893;-69
2023/03/18 10:13:02;;;;;;;1.30;1.20;;;11.00;99.90;;;;;;4994261;28;20481;-66
2023/03/18 10:15:35;;;;;;;1.43;1.07;;;11.00;99.90;;;;;;4984359;28;20532;-67
2023/03/18 10:18:11;;;;;;;1.90;1.30;;;11.00;99.90;;;;;;4982014;28;20978;-73
2023/03/18 10:20:54;;;;;;;1.50;1.40;;;11.00;99.90;;;;;;4981148;28;20449;-69
2023/03/18 10:23:34;;;;;;;1.87;1.47;;;11.10;99.90;;;;;;4998516;28;20454;-69
2023/03/18 10:26:10;;;;;;;1.83;1.67;;;11.10;99.90;;;;;;4987816;28;20520;-69
2023/03/18 10:29:05;;;;;;;2.57;1.70;;;11.20;99.90;;;;;;4979016;28;20481;-70
2023/03/18 10:31:53;;;;;;;3.20;1.60;;;11.30;99.90;;;;;;4990491;28;20852;-75
2023/03/18 10:34:26;;;;;;;3.40;1.87;;;11.40;99.90;;;;;;4988012;28;20965;-74
2023/03/18 10:37:01;;;;;;;1.77;1.30;;;11.50;99.90;;;;;;4981799;28;20475;-75
2023/03/18 10:39:32;;;;;;;2.90;1.60;;;11.60;99.90;;;;;;4993489;28;21412;-69
2023/03/18 10:42:07;;;;;;;2.30;2.10;;;11.60;99.90;;;;;;4981248;28;20459;-68
2023/03/18 10:44:38;;;;;;;3.60;1.80;;;11.60;99.90;;;;;;4993297;28;20537;-70
2023/03/18 10:47:14;;;;;;;1.80;1.37;;;11.70;99.90;;;;;;5008170;28;20516;-68
2023/03/18 10:49:46;;;;;;;4.47;2.10;;;11.70;99.90;;;;;;4982658;28;20457;-68
2023/03/18 10:52:20;;;;;;;3.03;2.07;;;11.70;99.90;;;;;;4999345;28;20515;-69
2023/03/18 10:54:51;;;;;;;4.13;2.07;;;11.80;99.90;;;;;;4995587;28;20451;-75
2023/03/18 10:57:22;;;;;;;3.47;1.77;;;11.80;99.90;;;;;;4986611;28;21150;-68
2023/03/18 10:59:51;;;;;;;4.73;1.20;;;11.80;99.90;;;;;;4980162;28;20445;-74
2023/03/18 11:02:25;;;;;;;6.43;1.97;;;11.80;99.90;;;;;;4978791;28;21271;-68
2023/03/18 11:04:57;;;;;;;9.47;2.23;;;11.80;99.90;;;;;;4987351;28;20454;-74
2023/03/18 11:07:27;;;;;;;2.10;1.20;;;11.90;99.90;;;;;;4974970;28;21037;-74
2023/03/18 11:10:12;;;;;;;4.60;1.57;;;11.90;99.90;;;;;;4997639;28;20509;-74
2023/03/18 11:12:41;;;;;;;3.10;1.80;;;11.90;99.90;;;;;;4983975;28;20481;-69
2023/03/18 11:15:12;;;;;;;2.90;2.00;;;11.90;99.90;;;;;;4990805;28;20577;-69
2023/03/18 11:17:42;;;;;;;4.40;2.00;;;11.90;99.90;;;;;;4997845;28;20537;-69
2023/03/18 11:20:24;;;;;;;2.23;1.47;;;11.90;99.90;;;;;;4984013;28;20442;-68
2023/03/18 11:22:56;;;;;;;2.17;1.63;;;11.90;99.90;;;;;;4994653;28;20451;-69
2023/03/18 11:25:28;;;;;;;2.43;1.93;;;11.90;99.90;;;;;;4995406;28;20911;-67
2023/03/18 11:28:03;;;;;;;1.70;1.60;;;12.00;99.90;;;;;;4996621;28;21362;-68
2023/03/18 11:30:45;;;;;;;3.47;2.37;;;11.90;99.90;;;;;;4991036;28;20454;-68
2023/03/18 11:33:16;;;;;;;2.70;2.10;;;12.00;99.90;;;;;;4983031;28;20843;-67
2023/03/18 11:35:49;;;;;;;2.17;1.80;;;12.00;99.90;;;;;;4984443;28;20472;-67
2023/03/18 11:38:21;;;;;;;2.40;1.80;;;12.00;99.90;;;;;;4993433;28;20460;-68
2023/03/18 11:40:53;;;;;;;4.63;1.77;;;12.00;99.90;;;;;;4979369;28;20512;-65
2023/03/18 11:43:24;;;;;;;3.43;1.50;;;12.00;99.90;;;;;;4986989;28;20982;-67
2023/03/18 11:45:59;;;;;;;4.40;1.50;;;12.10;99.90;;;;;;4990418;28;20892;-66
2023/03/18 11:48:32;;;;;;;2.10;1.73;;;12.10;99.90;;;;;;4993484;28;20462;-66
2023/03/18 11:51:18;;;;;;;1.70;1.30;;;12.10;99.90;;;;;;4992848;28;20439;-66
2023/03/18 11:54:01;;;;;;;2.67;1.40;;;12.10;99.90;;;;;;4974143;28;20514;-66
2023/03/18 11:56:35;;;;;;;2.37;1.57;;;12.10;99.90;;;;;;4973567;28;20482;-67
2023/03/18 11:59:17;;;;;;;6.63;1.87;;;12.10;99.90;;;;;;4977613;28;20815;-73
2023/03/18 12:01:56;;;;;;;2.83;2.00;;;12.20;99.90;;;;;;4972842;28;20471;-72
2023/03/18 12:04:48;;;;;;;1.90;1.10;;;12.20;99.90;;;;;;4993168;28;20450;-73
2023/03/18 12:07:44;;;;;;;2.97;1.60;;;12.20;99.90;;;;;;4974697;28;20518;-73
2023/03/18 12:10:19;;;;;;;3.10;1.50;;;12.20;99.90;;;;;;4974366;28;20474;-73
2023/03/18 12:13:02;;;;;;;4.73;1.90;;;12.20;99.90;;;;;;4979461;28;20477;-73
2023/03/18 12:15:41;;;;;;;3.90;1.80;;;12.20;99.90;;;;;;4988852;28;20527;-75
2023/03/18 12:18:23;;;;;;;5.00;1.80;;;12.20;99.90;;;;;;4999045;28;20475;-74
2023/03/18 12:20:52;;;;;;;3.83;1.77;;;12.20;99.90;;;;;;5024456;28;20450;-74
2023/03/18 12:23:40;;;;;;;2.77;1.50;;;12.20;99.90;;;;;;4992594;28;20445;-74
2023/03/18 12:26:15;;;;;;;5.47;1.83;;;12.20;99.90;;;;;;4989889;28;20505;-73
2023/03/18 12:29:10;;;;;;;2.77;1.90;;;12.20;99.90;;;;;;5000131;28;20965;-73
2023/03/18 12:31:52;;;;;;;2.83;1.60;;;12.20;99.90;;;;;;4998330;28;20493;-75
2023/03/18 12:34:32;;;;;;;5.10;2.40;;;12.20;99.90;;;;;;4989192;28;20581;-74
2023/03/18 12:37:16;;;;;;;2.17;1.47;;;12.20;99.90;;;;;;4984640;28;20927;-73
2023/03/18 12:40:00;;;;;;;2.40;1.60;;;12.20;99.90;;;;;;4996957;28;20443;-74
2023/03/18 12:42:42;;;;;;;3.00;2.70;;;12.20;99.90;;;;;;4993111;28;20468;-73
2023/03/18 12:45:15;;;;;;;3.00;1.80;;;12.20;99.90;;;;;;4979386;28;20443;-74
2023/03/18 12:47:48;;;;;;;2.93;2.63;;;12.30;99.90;;;;;;4986975;28;20995;-73
2023/03/18 12:50:19;;;;;;;1.73;1.40;;;12.30;99.90;;;;;;4987197;28;20994;-74
2023/03/18 12:52:53;;;;;;;3.97;1.90;;;12.40;99.90;;;;;;4993032;28;20470;-72
2023/03/18 12:55:26;;;;;;;4.43;1.83;;;12.50;99.90;;;;;;4999416;28;20507;-74
2023/03/18 12:58:00;;;;;;;6.03;2.60;;;12.40;99.90;;;;;;4985314;28;20470;-73
2023/03/18 13:00:35;;;;;;;3.20;1.67;;;12.40;99.90;;;;;;4999508;28;20465;-72
2023/03/18 13:03:16;;;;;;;2.23;2.03;;;12.30;99.90;;;;;;4985066;28;20899;-72
2023/03/18 13:05:51;;;;;;;2.10;1.40;;;12.30;99.90;;;;;;4999186;28;20450;-72
2023/03/18 13:08:57;;;;;;;7.87;2.43;;;12.20;99.90;;;;;;4977980;28;20468;-73
2023/03/18 13:11:49;;;;;;;2.87;1.90;;;12.20;99.90;;;;;;4992802;28;21053;-72
2023/03/18 13:14:26;;;;;;;2.83;2.40;;;12.20;99.90;;;;;;5002315;28;20977;-72